createdAt,value
2019-04-19T00:02:05.863Z,14.30
2019-04-19T00:04:33.240Z,14.67
2019-04-19T00:07:13.181Z,14.67
2019-04-19T00:09:49.507Z,13.10
2019-04-19T00:12:23.152Z,14.03
2019-04-19T00:14:42.580Z,14.13
2019-04-19T00:17:18.891Z,13.83
2019-04-19T00:20:13.775Z,14.93
2019-04-19T00:22:33.202Z,13.10
2019-04-19T00:24:50.105Z,11.27
2019-04-19T00:27:23.911Z,10.10
2019-04-19T00:29:59.482Z,11.23
2019-04-19T00:32:38.151Z,10.33
2019-04-19T00:34:57.373Z,10.57
2019-04-19T00:37:29.025Z,10.27
2019-04-19T00:43:40.798Z,10.10
2019-04-19T00:46:09.778Z,11.00
2019-04-19T00:48:41.425Z,11.37
2019-04-19T00:51:11.981Z,10.37
2019-04-19T00:53:38.594Z,9.97
2019-04-19T00:56:12.482Z,10.80
2019-04-19T00:58:37.412Z,11.47
2019-04-19T01:01:15.492Z,11.00
2019-04-19T01:03:45.377Z,11.97
2019-04-19T01:06:15.175Z,11.43
2019-04-19T01:08:56.615Z,11.10
2019-04-19T01:11:28.604Z,10.70
2019-04-19T01:14:01.363Z,12.23
2019-04-19T01:16:31.224Z,11.70
2019-04-19T01:19:00.573Z,11.33
2019-04-19T01:21:25.969Z,11.80
2019-04-19T01:23:59.108Z,11.27
2019-04-19T01:26:30.006Z,11.60
2019-04-19T01:29:06.203Z,11.40
2019-04-19T01:31:33.977Z,12.00
2019-04-19T01:34:10.992Z,12.63
2019-04-19T01:36:40.274Z,11.43
2019-04-19T01:39:25.534Z,11.40
2019-04-19T01:41:51.600Z,11.07
2019-04-19T01:44:34.503Z,11.33
2019-04-19T01:48:22.118Z,11.80
2019-04-19T01:50:59.400Z,12.90
2019-04-19T01:53:29.497Z,11.57
2019-04-19T01:55:46.501Z,11.73
2019-04-19T01:58:20.816Z,11.03
2019-04-19T02:00:54.808Z,12.53
2019-04-19T02:03:29.849Z,10.43
2019-04-19T02:06:01.517Z,12.40
2019-04-19T02:08:27.124Z,10.77
2019-04-19T02:11:57.865Z,11.97
2019-04-19T02:14:26.152Z,10.50
2019-04-19T02:16:59.615Z,11.27
2019-04-19T02:19:28.542Z,11.63
2019-04-19T02:22:02.010Z,12.17
2019-04-19T02:24:37.096Z,11.20
2019-04-19T02:27:07.800Z,12.20
2019-04-19T02:29:37.034Z,12.30
2019-04-19T02:35:09.574Z,11.60
2019-04-19T02:40:34.760Z,10.03
2019-04-19T02:45:17.565Z,10.50
2019-04-19T02:50:25.734Z,10.80
2019-04-19T02:52:56.930Z,9.90
2019-04-19T03:06:03.956Z,11.87
2019-04-19T03:08:20.684Z,9.80
2019-04-19T03:11:05.184Z,10.27
2019-04-19T03:13:41.147Z,10.40
2019-04-19T03:16:11.596Z,11.28
2019-04-19T03:18:42.628Z,9.67
2019-04-19T03:21:11.527Z,10.80
2019-04-19T03:23:45.601Z,10.23
2019-04-19T03:26:22.047Z,11.17
2019-04-19T03:28:44.952Z,11.17
2019-04-19T03:34:02.819Z,9.77
2019-04-19T03:36:28.236Z,9.70
2019-04-19T03:39:04.156Z,9.37
2019-04-19T03:44:31.095Z,11.20
2019-04-19T03:49:34.718Z,10.03
2019-04-19T03:54:40.379Z,11.40
2019-04-19T03:57:11.586Z,10.13
2019-04-19T03:59:29.091Z,10.70
2019-04-19T04:02:02.315Z,10.35
2019-04-19T04:04:35.097Z,10.55
2019-04-19T04:07:11.101Z,10.63
2019-04-19T04:09:52.558Z,12.30
2019-04-19T04:12:34.496Z,11.38
2019-04-19T04:15:10.413Z,11.43
2019-04-19T04:17:31.223Z,9.98
2019-04-19T04:20:01.697Z,10.30
2019-04-19T04:22:37.314Z,10.95
2019-04-19T04:25:13.368Z,10.23
2019-04-19T04:27:49.489Z,11.20
2019-04-19T04:30:17.512Z,9.98
2019-04-19T04:32:53.714Z,10.58
2019-04-19T04:35:30.681Z,9.73
2019-04-19T04:37:58.090Z,10.48
2019-04-19T04:40:19.121Z,10.53
2019-04-19T04:43:03.877Z,10.78
2019-04-19T04:45:48.988Z,10.72
2019-04-19T04:48:14.734Z,10.30
2019-04-19T04:51:00.511Z,11.40
2019-04-19T04:53:13.023Z,10.28
2019-04-19T04:55:54.956Z,10.35
2019-04-19T04:58:25.179Z,10.23
2019-04-19T05:00:57.079Z,10.00
2019-04-19T05:03:40.028Z,11.07
2019-04-19T05:06:11.085Z,9.73
2019-04-19T05:08:46.278Z,9.40
2019-04-19T05:11:18.857Z,10.15
2019-04-19T05:13:54.585Z,10.68
2019-04-19T05:16:27.158Z,10.53
2019-04-19T05:18:50.987Z,9.93
2019-04-19T05:21:24.264Z,10.20
2019-04-19T05:23:59.533Z,10.60
2019-04-19T05:26:44.990Z,9.10
2019-04-19T05:28:59.736Z,9.60
2019-04-19T05:31:22.725Z,10.00
2019-04-19T05:34:08.446Z,9.60
2019-04-19T05:36:39.253Z,10.60
2019-04-19T05:39:16.029Z,9.80
2019-04-19T05:41:50.034Z,9.03
2019-04-19T05:46:59.447Z,9.50
2019-04-19T05:49:26.293Z,8.93
2019-04-19T05:52:09.220Z,8.93
2019-04-19T05:54:19.252Z,9.30
2019-04-19T05:56:54.796Z,9.80
2019-04-19T05:59:35.319Z,9.43
2019-04-19T06:02:07.553Z,9.57
2019-04-19T06:04:52.029Z,9.40
2019-04-19T06:07:17.863Z,10.33
2019-04-19T06:09:30.692Z,10.30
2019-04-19T06:12:19.240Z,10.30
2019-04-19T06:15:02.407Z,9.80
2019-04-19T06:17:43.681Z,9.10
2019-04-19T06:20:13.659Z,10.77
2019-04-19T06:22:49.943Z,10.17
2019-04-19T06:25:22.826Z,10.43
2019-04-19T06:28:09.253Z,9.67
2019-04-19T06:30:24.631Z,9.60
2019-04-19T06:32:56.220Z,10.73
2019-04-19T06:35:21.876Z,9.10
2019-04-19T06:37:41.934Z,8.87
2019-04-19T06:40:19.065Z,9.20
2019-04-19T06:42:54.317Z,9.10
2019-04-19T06:45:30.245Z,9.70
2019-04-19T06:47:56.963Z,9.40
2019-04-19T06:50:30.142Z,8.73
2019-04-19T06:52:55.122Z,8.87
2019-04-19T06:55:31.718Z,9.00
2019-04-19T06:58:07.641Z,9.60
2019-04-19T07:00:44.872Z,9.80
2019-04-19T07:03:04.683Z,9.50
2019-04-19T07:05:46.237Z,10.63
2019-04-19T07:08:50.241Z,9.93
2019-04-19T07:11:06.207Z,9.33
2019-04-19T07:13:27.590Z,9.30
2019-04-19T07:16:09.039Z,8.60
2019-04-19T07:18:36.047Z,9.13
2019-04-19T07:21:12.395Z,10.10
2019-04-19T07:23:43.765Z,8.60
2019-04-19T07:26:15.548Z,8.13
2019-04-19T07:28:31.804Z,8.90
2019-04-19T07:31:03.570Z,8.60
2019-04-19T07:33:44.105Z,9.93
2019-04-19T07:36:22.369Z,9.23
2019-04-19T07:39:00.288Z,8.03
2019-04-19T07:41:27.942Z,8.47
2019-04-19T07:44:09.917Z,8.83
2019-04-19T07:46:53.234Z,8.27
2019-04-19T07:49:06.162Z,8.77
2019-04-19T07:51:44.295Z,8.20
2019-04-19T07:54:14.950Z,9.57
2019-04-19T07:56:51.737Z,8.47
2019-04-19T08:09:53.837Z,7.47
2019-04-19T08:12:25.587Z,8.60
2019-04-19T08:29:49.274Z,9.00
2019-04-19T08:32:13.283Z,8.27
2019-04-19T08:34:53.860Z,7.90
2019-04-19T08:37:23.927Z,8.20
2019-04-19T08:40:04.931Z,8.80
2019-04-19T08:43:07.271Z,9.03
2019-04-19T08:44:59.697Z,8.80
2019-04-19T08:47:37.612Z,8.20
2019-04-19T08:50:17.256Z,9.27
2019-04-19T08:52:54.494Z,7.97
2019-04-19T08:55:45.148Z,8.03
2019-04-19T08:57:59.615Z,8.23
2019-04-19T09:00:55.462Z,7.93
2019-04-19T09:03:07.524Z,7.73
2019-04-19T09:05:53.757Z,7.43
2019-04-19T09:08:24.253Z,8.23
2019-04-19T09:10:55.778Z,7.43
2019-04-19T09:13:35.387Z,8.30
2019-04-19T09:15:57.118Z,7.37
2019-04-19T09:18:39.174Z,7.40
2019-04-19T09:21:01.241Z,7.90
2019-04-19T09:23:27.450Z,7.30
2019-04-19T09:26:05.869Z,7.73
2019-04-19T09:29:00.697Z,7.30
2019-04-19T09:31:19.946Z,6.73
2019-04-19T09:33:35.679Z,7.77
2019-04-19T09:36:08.427Z,7.83
2019-04-19T09:38:50.283Z,7.70
2019-04-19T09:41:19.382Z,7.78
2019-04-19T09:43:52.298Z,7.77
2019-04-19T09:46:12.511Z,7.40
2019-04-19T09:49:00.816Z,7.10
2019-04-19T09:51:35.236Z,7.67
2019-04-19T09:54:09.455Z,8.20
2019-04-19T09:56:35.855Z,7.77
2019-04-19T09:59:02.977Z,7.37
2019-04-19T10:01:30.226Z,7.33
2019-04-19T10:03:59.955Z,6.20
2019-04-19T10:06:29.246Z,7.00
2019-04-19T10:09:01.202Z,7.50
2019-04-19T10:11:32.783Z,6.57
2019-04-19T10:14:04.378Z,6.67
2019-04-19T10:16:36.871Z,7.13
2019-04-19T10:19:08.488Z,7.37
2019-04-19T10:21:43.786Z,7.80
2019-04-19T10:24:18.180Z,8.00
2019-04-19T10:26:54.751Z,7.53
2019-04-19T10:29:31.822Z,7.20
2019-04-19T10:32:02.155Z,7.50
2019-04-19T10:34:32.630Z,7.37
2019-04-19T10:37:03.725Z,6.67
2019-04-19T10:39:34.452Z,6.73
2019-04-19T10:42:06.268Z,7.40
2019-04-19T10:44:38.060Z,7.30
2019-04-19T10:47:10.159Z,7.10
2019-04-19T10:49:47.086Z,6.47
2019-04-19T10:52:26.083Z,7.13
2019-04-19T10:54:57.274Z,6.50
2019-04-19T10:57:27.766Z,6.90
2019-04-19T11:00:00.917Z,7.17
2019-04-19T11:02:34.033Z,7.13
2019-04-19T11:05:05.381Z,7.27
2019-04-19T11:07:38.370Z,7.10
2019-04-19T11:10:09.541Z,7.00
2019-04-19T11:12:40.814Z,6.43
2019-04-19T11:15:12.813Z,7.20
2019-04-19T11:17:43.722Z,7.13
2019-04-19T11:20:25.955Z,7.23
2019-04-19T11:22:46.559Z,6.33
2019-04-19T11:25:19.730Z,7.43
2019-04-19T11:27:52.616Z,7.20
2019-04-19T11:30:33.394Z,6.50
2019-04-19T11:33:05.396Z,6.53
2019-04-19T11:35:47.633Z,7.03
2019-04-19T11:38:18.829Z,5.47
2019-04-19T11:40:49.282Z,6.83
2019-04-19T11:43:19.841Z,6.40
2019-04-19T11:45:51.619Z,6.70
2019-04-19T11:48:22.754Z,6.97
2019-04-19T11:50:53.966Z,6.87
2019-04-19T11:53:45.168Z,6.47
2019-04-19T11:56:37.506Z,6.50
2019-04-19T11:59:09.308Z,6.73
2019-04-19T12:01:44.251Z,7.17
2019-04-19T12:04:14.623Z,6.87
2019-04-19T12:06:45.234Z,6.70
2019-04-19T12:09:16.439Z,6.27
2019-04-19T12:11:48.437Z,6.23
2019-04-19T12:14:19.652Z,6.83
2019-04-19T12:16:50.940Z,6.50
2019-04-19T12:19:29.450Z,6.60
2019-04-19T12:21:55.316Z,6.63
2019-04-19T12:24:26.713Z,6.47
2019-04-19T12:26:57.737Z,6.67
2019-04-19T12:29:35.322Z,6.30
2019-04-19T12:32:01.346Z,6.50
2019-04-19T12:34:32.911Z,6.57
2019-04-19T12:37:03.335Z,7.30
2019-04-19T12:39:34.788Z,7.77
2019-04-19T12:42:06.139Z,6.80
2019-04-19T12:44:38.882Z,7.07
2019-04-19T12:47:08.878Z,6.83
2019-04-19T12:49:52.054Z,7.47
2019-04-19T12:52:12.468Z,5.97
2019-04-19T12:54:43.781Z,7.17
2019-04-19T12:57:15.988Z,7.40
2019-04-19T12:59:47.641Z,7.30
2019-04-19T13:02:20.177Z,7.00
2019-04-19T13:05:02.600Z,8.10
2019-04-19T13:07:33.191Z,7.47
2019-04-19T13:10:04.747Z,7.13
2019-04-19T13:12:37.109Z,7.00
2019-04-19T13:15:09.486Z,7.97
2019-04-19T13:17:40.179Z,7.47
2019-04-19T13:20:17.629Z,7.13
2019-04-19T13:22:42.721Z,6.17
2019-04-19T13:25:15.679Z,7.13
2019-04-19T13:27:53.758Z,6.90
2019-04-19T13:30:29.595Z,6.27
2019-04-19T13:32:54.290Z,7.10
2019-04-19T13:35:25.583Z,5.87
2019-04-19T13:38:03.809Z,6.50
2019-04-19T13:40:38.779Z,6.77
2019-04-19T13:43:11.077Z,6.70
2019-04-19T13:45:42.718Z,7.73
2019-04-19T13:48:14.547Z,6.40
2019-04-19T13:50:47.318Z,7.73
2019-04-19T13:53:18.359Z,7.60
2019-04-19T13:55:50.619Z,31.65
2019-04-19T13:58:22.040Z,17.33
2019-04-19T14:00:56.367Z,7.87
2019-04-19T14:03:27.645Z,11.83
2019-04-19T14:05:58.110Z,6.90
2019-04-19T14:08:31.050Z,6.50
2019-04-19T14:11:01.390Z,5.80
2019-04-19T14:13:32.887Z,5.20
2019-04-19T14:16:04.902Z,6.00
2019-04-19T14:18:35.397Z,6.10
2019-04-19T14:21:06.388Z,6.77
2019-04-19T14:23:37.529Z,6.00
2019-04-19T14:26:09.624Z,5.37
2019-04-19T14:28:41.236Z,6.20
2019-04-19T14:31:12.334Z,6.47
2019-04-19T14:33:43.245Z,6.33
2019-04-19T14:36:14.089Z,6.17
2019-04-19T14:38:45.641Z,6.70
2019-04-19T14:41:17.641Z,6.47
2019-04-19T14:43:48.260Z,5.80
2019-04-19T14:46:19.071Z,5.60
2019-04-19T14:48:49.432Z,6.40
2019-04-19T14:51:26.742Z,4.97
2019-04-19T14:53:51.856Z,5.33
2019-04-19T14:56:22.220Z,5.80
2019-04-19T14:58:53.848Z,6.10
2019-04-19T15:01:26.653Z,6.33
2019-04-19T15:04:04.801Z,5.10
2019-04-19T15:06:35.744Z,5.90
2019-04-19T15:09:07.780Z,5.87
2019-04-19T15:11:39.443Z,5.50
2019-04-19T15:14:10.363Z,5.53
2019-04-19T15:16:41.329Z,5.90
2019-04-19T15:19:14.466Z,6.00
2019-04-19T15:21:46.062Z,5.60
2019-04-19T15:24:16.942Z,6.30
2019-04-19T15:26:47.517Z,5.77
2019-04-19T15:29:19.017Z,6.13
2019-04-19T15:31:50.320Z,6.10
2019-04-19T15:34:21.906Z,5.57
2019-04-19T15:36:53.631Z,5.17
2019-04-19T15:39:24.463Z,5.30
2019-04-19T15:41:56.571Z,6.53
2019-04-19T15:44:26.976Z,5.50
2019-04-19T15:46:57.836Z,5.20
2019-04-19T15:49:28.304Z,5.07
2019-04-19T15:51:59.819Z,5.20
2019-04-19T15:54:30.256Z,5.50
2019-04-19T15:57:02.469Z,6.60
2019-04-19T15:59:32.914Z,5.70
2019-04-19T16:02:06.152Z,5.90
2019-04-19T16:04:48.143Z,6.10
2019-04-19T16:07:32.496Z,6.00
2019-04-19T16:10:08.481Z,5.00
2019-04-19T16:12:39.843Z,5.47
2019-04-19T16:15:10.295Z,4.90
2019-04-19T16:17:41.880Z,6.60
2019-04-19T16:20:13.434Z,5.97
2019-04-19T16:22:44.601Z,5.60
2019-04-19T16:25:15.014Z,5.40
2019-04-19T16:27:46.833Z,5.60
2019-04-19T16:30:18.579Z,5.10
2019-04-19T16:32:49.393Z,5.73
2019-04-19T16:35:20.020Z,5.20
2019-04-19T16:37:51.264Z,5.30
2019-04-19T16:40:22.702Z,5.77
2019-04-19T16:42:53.146Z,5.30
2019-04-19T16:45:24.116Z,5.27
2019-04-19T16:47:55.547Z,5.50
2019-04-19T16:50:25.974Z,5.60
2019-04-19T16:52:56.819Z,5.50
2019-04-19T16:55:27.642Z,5.17
2019-04-19T16:57:58.883Z,4.60
2019-04-19T17:00:40.780Z,5.60
2019-04-19T17:03:11.815Z,5.70
2019-04-19T17:05:42.338Z,5.00
2019-04-19T17:08:13.593Z,5.70
2019-04-19T17:10:44.818Z,6.00
2019-04-19T17:13:15.229Z,5.60
2019-04-19T17:15:47.208Z,7.60
2019-04-19T17:18:36.595Z,5.33
2019-04-19T17:21:17.708Z,5.83
2019-04-19T17:23:48.924Z,7.07
2019-04-19T17:26:20.276Z,5.40
2019-04-19T17:28:50.912Z,6.07
2019-04-19T17:31:22.416Z,5.90
2019-04-19T17:33:54.035Z,5.63
2019-04-19T17:36:26.011Z,6.10
2019-04-19T17:38:58.407Z,4.57
2019-04-19T17:41:28.834Z,5.07
2019-04-19T17:43:59.526Z,4.70
2019-04-19T17:46:30.597Z,6.30
2019-04-19T17:49:02.323Z,4.40
2019-04-19T17:51:33.729Z,3.77
2019-04-19T17:54:05.404Z,3.77
2019-04-19T17:56:37.373Z,4.87
2019-04-19T17:59:07.743Z,4.20
2019-04-19T18:01:38.208Z,5.20
2019-04-19T18:04:09.130Z,3.73
2019-04-19T18:06:44.261Z,5.27
2019-04-19T18:09:15.802Z,4.33
2019-04-19T18:11:45.243Z,3.63
2019-04-19T18:14:15.991Z,5.23
2019-04-19T18:16:46.358Z,5.03
2019-04-19T18:19:24.101Z,4.10
2019-04-19T18:21:50.071Z,4.50
2019-04-19T18:24:24.418Z,5.27
2019-04-19T18:26:54.952Z,4.13
2019-04-19T18:29:28.477Z,4.10
2019-04-19T18:32:00.399Z,4.50
2019-04-19T18:34:45.664Z,5.20
2019-04-19T18:37:18.653Z,4.77
2019-04-19T18:39:49.962Z,4.50
2019-04-19T18:42:21.808Z,3.90
2019-04-19T18:44:57.514Z,4.63
2019-04-19T18:47:24.987Z,4.50
2019-04-19T18:49:55.452Z,3.87
2019-04-19T18:52:36.794Z,5.00
2019-04-19T18:55:05.092Z,4.57
2019-04-19T18:57:33.586Z,5.63
2019-04-19T19:00:02.359Z,5.20
2019-04-19T19:02:32.712Z,4.90
2019-04-19T19:05:05.706Z,4.80
2019-04-19T19:07:36.770Z,4.70
2019-04-19T19:10:09.692Z,3.30
2019-04-19T19:12:45.337Z,4.30
2019-04-19T19:15:14.636Z,3.37
2019-04-19T19:17:50.992Z,2.93
2019-04-19T19:20:22.568Z,3.33
2019-04-19T19:23:04.696Z,3.00
2019-04-19T19:25:35.430Z,3.63
2019-04-19T19:27:55.723Z,3.27
2019-04-19T19:30:26.925Z,3.77
2019-04-19T19:33:06.601Z,3.20
2019-04-19T19:35:30.452Z,4.63
2019-04-19T19:38:09.897Z,3.40
2019-04-19T19:40:47.988Z,2.80
2019-04-19T19:43:27.813Z,2.33
2019-04-19T19:45:51.495Z,2.50
2019-04-19T19:48:28.377Z,2.50
2019-04-19T19:51:04.749Z,11.60
2019-04-19T19:53:45.910Z,15.23
2019-04-19T19:56:14.913Z,5.93
2019-04-19T19:58:29.888Z,3.00
2019-04-19T20:01:09.704Z,2.53
2019-04-19T20:03:34.414Z,9.40
2019-04-19T20:06:06.621Z,3.77
2019-04-19T20:08:37.267Z,6.13
2019-04-19T20:11:02.342Z,4.90
2019-04-19T20:13:39.689Z,14.00
2019-04-19T20:16:08.197Z,22.77
2019-04-19T20:18:41.520Z,12.43
2019-04-19T20:21:14.374Z,7.50
2019-04-19T20:23:55.081Z,3.70
2019-04-19T20:26:24.517Z,5.40
2019-04-19T20:28:47.691Z,5.30
2019-04-19T20:31:26.201Z,3.50
2019-04-19T20:33:56.599Z,3.57
2019-04-19T20:36:23.053Z,3.80
2019-04-19T20:38:58.780Z,3.50
2019-04-19T20:41:28.476Z,3.50
2019-04-19T20:44:12.687Z,3.30
2019-04-19T20:46:31.990Z,2.80
2019-04-19T20:49:06.471Z,2.53
2019-04-19T20:51:51.116Z,2.80
2019-04-19T20:54:38.398Z,2.37
2019-04-19T20:57:04.641Z,2.37
2019-04-19T20:59:15.993Z,3.00
2019-04-19T21:01:46.705Z,2.80
2019-04-19T21:04:18.529Z,2.77
2019-04-19T21:06:49.649Z,2.73
2019-04-19T21:09:24.736Z,2.27
2019-04-19T21:11:54.165Z,2.20
2019-04-19T21:14:30.091Z,2.30
2019-04-19T21:17:01.066Z,2.83
2019-04-19T21:19:30.970Z,2.90
2019-04-19T21:22:01.681Z,2.20
2019-04-19T21:24:44.458Z,2.90
2019-04-19T21:27:10.150Z,2.47
2019-04-19T21:29:36.978Z,2.73
2019-04-19T21:32:07.461Z,2.47
2019-04-19T21:34:38.549Z,2.70
2019-04-19T21:37:10.692Z,3.00
2019-04-19T21:39:44.958Z,2.60
2019-04-19T21:42:13.817Z,2.63
2019-04-19T21:44:50.705Z,2.97
2019-04-19T21:47:16.279Z,2.67
2019-04-19T21:49:49.982Z,2.80
2019-04-19T21:52:22.215Z,2.73
2019-04-19T21:54:53.295Z,3.90
2019-04-19T21:57:29.025Z,2.90
2019-04-19T21:59:56.454Z,3.33
2019-04-19T22:02:35.387Z,2.83
2019-04-19T22:05:06.018Z,3.10
2019-04-19T22:07:38.931Z,3.10
2019-04-19T22:10:07.686Z,2.57
2019-04-19T22:12:38.612Z,3.13
2019-04-19T22:15:12.345Z,3.60
2019-04-19T22:17:41.535Z,2.93
2019-04-19T22:20:16.517Z,3.27
2019-04-19T22:22:45.457Z,2.97
2019-04-19T22:25:31.016Z,2.67
2019-04-19T22:27:47.916Z,2.70
2019-04-19T22:30:18.372Z,3.40
2019-04-19T22:32:53.429Z,2.33
2019-04-19T22:35:24.019Z,3.30
2019-04-19T22:37:54.583Z,3.10
2019-04-19T22:40:25.182Z,3.23
2019-04-19T22:43:00.492Z,3.17
2019-04-19T22:45:28.698Z,2.60
2019-04-19T22:48:06.502Z,2.92
2019-04-19T22:50:34.511Z,2.60
2019-04-19T22:53:04.875Z,3.80
2019-04-19T22:55:45.155Z,3.10
2019-04-19T22:58:11.315Z,3.00
2019-04-19T23:00:42.423Z,2.57
2019-04-19T23:03:25.398Z,3.80
2019-04-19T23:05:50.376Z,3.58
2019-04-19T23:08:27.795Z,3.72
2019-04-19T23:10:59.014Z,2.90
2019-04-19T23:13:27.503Z,3.87
2019-04-19T23:16:04.582Z,3.70
2019-04-19T23:18:32.422Z,4.05
2019-04-19T23:21:10.882Z,2.85
2019-04-19T23:23:36.423Z,3.42
2019-04-19T23:26:19.570Z,3.73
2019-04-19T23:28:42.878Z,4.12
2019-04-19T23:31:14.209Z,3.67
2019-04-19T23:33:52.262Z,3.57
2019-04-19T23:36:21.083Z,3.77
2019-04-19T23:38:52.157Z,4.20
2019-04-19T23:41:21.566Z,3.87
2019-04-19T23:43:53.354Z,3.60
2019-04-19T23:46:29.247Z,3.22
2019-04-19T23:49:01.476Z,3.58
2019-04-19T23:51:29.478Z,3.80
2019-04-19T23:54:00.856Z,3.25
2019-04-19T23:56:36.919Z,3.62
2019-04-19T23:59:09.302Z,3.90
